sensor_id;sensor_type;location;lat;lon;timestamp;temperature;humidity
11772;DHT22;12556;55.748;13.194;2022-09-03T00:02:30;13.90;99.90
11772;DHT22;12556;55.748;13.194;2022-09-03T00:05:03;13.90;99.90
11772;DHT22;12556;55.748;13.194;2022-09-03T00:07:38;13.90;99.90
11772;DHT22;12556;55.748;13.194;2022-09-03T00:10:09;13.80;99.90
11772;DHT22;12556;55.748;13.194;2022-09-03T00:12:39;13.80;99.90
11772;DHT22;12556;55.748;13.194;2022-09-03T00:15:11;13.80;99.90
11772;DHT22;12556;55.748;13.194;2022-09-03T00:17:41;13.80;99.90
11772;DHT22;12556;55.748;13.194;2022-09-03T00:20:12;13.70;99.90
11772;DHT22;12556;55.748;13.194;2022-09-03T00:22:44;13.70;99.90
11772;DHT22;12556;55.748;13.194;2022-09-03T00:25:16;13.70;99.90
11772;DHT22;12556;55.748;13.194;2022-09-03T00:27:47;13.70;99.90
11772;DHT22;12556;55.748;13.194;2022-09-03T00:30:16;13.60;99.90
11772;DHT22;12556;55.748;13.194;2022-09-03T00:32:44;13.60;99.90
11772;DHT22;12556;55.748;13.194;2022-09-03T00:35:16;13.60;99.90
11772;DHT22;12556;55.748;13.194;2022-09-03T00:37:46;13.50;99.90
11772;DHT22;12556;55.748;13.194;2022-09-03T00:40:24;13.50;99.90
11772;DHT22;12556;55.748;13.194;2022-09-03T00:43:01;13.50;99.90
11772;DHT22;12556;55.748;13.194;2022-09-03T00:45:37;13.50;99.90
11772;DHT22;12556;55.748;13.194;2022-09-03T00:48:15;13.40;99.90
11772;DHT22;12556;55.748;13.194;2022-09-03T00:50:55;13.40;99.90
11772;DHT22;12556;55.748;13.194;2022-09-03T00:53:35;13.40;99.90
11772;DHT22;12556;55.748;13.194;2022-09-03T00:56:14;13.40;99.90
11772;DHT22;12556;55.748;13.194;2022-09-03T00:58:54;13.40;99.90
11772;DHT22;12556;55.748;13.194;2022-09-03T01:01:28;13.30;99.90
11772;DHT22;12556;55.748;13.194;2022-09-03T01:04:07;13.40;99.90
11772;DHT22;12556;55.748;13.194;2022-09-03T01:06:41;13.40;99.90
11772;DHT22;12556;55.748;13.194;2022-09-03T01:09:27;13.40;99.90
11772;DHT22;12556;55.748;13.194;2022-09-03T01:12:00;13.40;99.90
11772;DHT22;12556;55.748;13.194;2022-09-03T01:14:46;13.40;99.90
11772;DHT22;12556;55.748;13.194;2022-09-03T01:17:24;13.40;99.90
11772;DHT22;12556;55.748;13.194;2022-09-03T01:20:24;13.40;99.90
11772;DHT22;12556;55.748;13.194;2022-09-03T01:23:36;13.40;99.90
11772;DHT22;12556;55.748;13.194;2022-09-03T01:26:15;13.40;99.90
11772;DHT22;12556;55.748;13.194;2022-09-03T01:28:57;13.30;99.90
11772;DHT22;12556;55.748;13.194;2022-09-03T01:31:35;13.30;99.90
11772;DHT22;12556;55.748;13.194;2022-09-03T01:34:12;13.30;99.90
11772;DHT22;12556;55.748;13.194;2022-09-03T01:36:47;13.30;99.90
11772;DHT22;12556;55.748;13.194;2022-09-03T01:39:25;13.20;99.90
11772;DHT22;12556;55.748;13.194;2022-09-03T01:42:01;13.20;99.90
11772;DHT22;12556;55.748;13.194;2022-09-03T01:47:45;13.10;99.90
11772;DHT22;12556;55.748;13.194;2022-09-03T01:50:23;13.00;99.90
11772;DHT22;12556;55.748;13.194;2022-09-03T01:52:55;13.00;99.90
11772;DHT22;12556;55.748;13.194;2022-09-03T01:55:30;13.00;99.90
11772;DHT22;12556;55.748;13.194;2022-09-03T01:58:01;13.00;99.90
11772;DHT22;12556;55.748;13.194;2022-09-03T02:00:34;12.90;99.90
11772;DHT22;12556;55.748;13.194;2022-09-03T02:03:05;12.90;99.90
11772;DHT22;12556;55.748;13.194;2022-09-03T02:05:32;12.90;99.90
11772;DHT22;12556;55.748;13.194;2022-09-03T02:08:02;13.00;99.90
11772;DHT22;12556;55.748;13.194;2022-09-03T02:10:33;13.00;99.90
11772;DHT22;12556;55.748;13.194;2022-09-03T02:13:06;13.00;99.90
11772;DHT22;12556;55.748;13.194;2022-09-03T02:15:36;13.00;99.90
11772;DHT22;12556;55.748;13.194;2022-09-03T02:18:06;13.00;99.90
11772;DHT22;12556;55.748;13.194;2022-09-03T02:20:35;13.00;99.90
11772;DHT22;12556;55.748;13.194;2022-09-03T02:23:03;13.00;99.90
11772;DHT22;12556;55.748;13.194;2022-09-03T02:25:34;13.00;99.90
11772;DHT22;12556;55.748;13.194;2022-09-03T02:28:04;13.00;99.90
11772;DHT22;12556;55.748;13.194;2022-09-03T02:30:31;13.00;99.90
11772;DHT22;12556;55.748;13.194;2022-09-03T02:33:00;13.00;99.90
11772;DHT22;12556;55.748;13.194;2022-09-03T02:35:27;13.10;99.90
11772;DHT22;12556;55.748;13.194;2022-09-03T02:37:54;13.00;99.90
11772;DHT22;12556;55.748;13.194;2022-09-03T02:40:21;13.10;99.90
11772;DHT22;12556;55.748;13.194;2022-09-03T02:42:48;13.00;99.90
11772;DHT22;12556;55.748;13.194;2022-09-03T02:45:22;13.00;99.90
11772;DHT22;12556;55.748;13.194;2022-09-03T02:47:53;13.00;99.90
11772;DHT22;12556;55.748;13.194;2022-09-03T02:50:22;13.00;99.90
11772;DHT22;12556;55.748;13.194;2022-09-03T02:52:49;13.00;99.90
11772;DHT22;12556;55.748;13.194;2022-09-03T02:55:17;12.90;99.90
11772;DHT22;12556;55.748;13.194;2022-09-03T02:57:44;12.90;99.90
11772;DHT22;12556;55.748;13.194;2022-09-03T03:00:12;12.90;99.90
11772;DHT22;12556;55.748;13.194;2022-09-03T03:02:39;12.90;99.90
11772;DHT22;12556;55.748;13.194;2022-09-03T03:05:08;12.80;99.90
11772;DHT22;12556;55.748;13.194;2022-09-03T03:07:40;13.80;99.90
11772;DHT22;12556;55.748;13.194;2022-09-03T03:10:08;12.90;99.90
11772;DHT22;12556;55.748;13.194;2022-09-03T03:12:35;12.90;99.90
11772;DHT22;12556;55.748;13.194;2022-09-03T03:15:02;12.90;99.90
11772;DHT22;12556;55.748;13.194;2022-09-03T03:17:29;12.90;99.90
11772;DHT22;12556;55.748;13.194;2022-09-03T03:19:56;12.90;99.90
11772;DHT22;12556;55.748;13.194;2022-09-03T03:22:23;12.90;99.90
11772;DHT22;12556;55.748;13.194;2022-09-03T03:24:51;12.90;99.90
11772;DHT22;12556;55.748;13.194;2022-09-03T03:27:19;12.80;99.90
11772;DHT22;12556;55.748;13.194;2022-09-03T03:29:47;12.80;99.90
11772;DHT22;12556;55.748;13.194;2022-09-03T03:32:14;13.50;99.90
11772;DHT22;12556;55.748;13.194;2022-09-03T03:34:41;12.80;99.90
11772;DHT22;12556;55.748;13.194;2022-09-03T03:37:08;12.80;99.90
11772;DHT22;12556;55.748;13.194;2022-09-03T03:39:35;12.70;99.90
11772;DHT22;12556;55.748;13.194;2022-09-03T03:42:03;12.80;99.90
11772;DHT22;12556;55.748;13.194;2022-09-03T03:44:30;12.80;99.90
11772;DHT22;12556;55.748;13.194;2022-09-03T03:46:57;12.80;99.90
11772;DHT22;12556;55.748;13.194;2022-09-03T03:49:24;12.80;99.90
11772;DHT22;12556;55.748;13.194;2022-09-03T03:51:51;12.70;99.90
11772;DHT22;12556;55.748;13.194;2022-09-03T03:54:18;12.70;99.90
11772;DHT22;12556;55.748;13.194;2022-09-03T03:56:45;12.70;99.90
11772;DHT22;12556;55.748;13.194;2022-09-03T03:59:13;12.80;99.90
11772;DHT22;12556;55.748;13.194;2022-09-03T04:01:40;12.70;99.90
11772;DHT22;12556;55.748;13.194;2022-09-03T04:04:07;12.80;99.90
11772;DHT22;12556;55.748;13.194;2022-09-03T04:06:34;12.80;99.90
11772;DHT22;12556;55.748;13.194;2022-09-03T04:09:00;12.80;99.90
11772;DHT22;12556;55.748;13.194;2022-09-03T04:11:27;12.80;99.90
11772;DHT22;12556;55.748;13.194;2022-09-03T04:13:54;12.80;99.90
11772;DHT22;12556;55.748;13.194;2022-09-03T04:16:24;12.80;99.90
11772;DHT22;12556;55.748;13.194;2022-09-03T04:18:52;12.80;99.90
11772;DHT22;12556;55.748;13.194;2022-09-03T04:21:20;12.80;99.90
11772;DHT22;12556;55.748;13.194;2022-09-03T04:23:49;12.80;99.90
11772;DHT22;12556;55.748;13.194;2022-09-03T04:26:18;12.80;99.90
11772;DHT22;12556;55.748;13.194;2022-09-03T04:28:45;12.70;99.90
11772;DHT22;12556;55.748;13.194;2022-09-03T04:31:14;12.70;99.90
11772;DHT22;12556;55.748;13.194;2022-09-03T04:33:45;12.70;99.90
11772;DHT22;12556;55.748;13.194;2022-09-03T04:36:16;12.70;99.90
11772;DHT22;12556;55.748;13.194;2022-09-03T04:38:44;12.70;99.90
11772;DHT22;12556;55.748;13.194;2022-09-03T04:41:14;12.70;99.90
11772;DHT22;12556;55.748;13.194;2022-09-03T04:43:41;12.70;99.90
11772;DHT22;12556;55.748;13.194;2022-09-03T04:46:10;12.70;99.90
11772;DHT22;12556;55.748;13.194;2022-09-03T04:48:37;12.70;99.90
11772;DHT22;12556;55.748;13.194;2022-09-03T04:51:08;12.70;99.90
11772;DHT22;12556;55.748;13.194;2022-09-03T04:53:37;12.80;99.90
11772;DHT22;12556;55.748;13.194;2022-09-03T04:56:12;12.80;99.90
11772;DHT22;12556;55.748;13.194;2022-09-03T04:58:39;12.80;99.90
11772;DHT22;12556;55.748;13.194;2022-09-03T05:01:10;12.80;99.90
11772;DHT22;12556;55.748;13.194;2022-09-03T05:03:37;12.90;99.90
11772;DHT22;12556;55.748;13.194;2022-09-03T05:06:05;12.90;99.90
11772;DHT22;12556;55.748;13.194;2022-09-03T05:08:33;12.90;99.90
11772;DHT22;12556;55.748;13.194;2022-09-03T05:11:02;13.00;99.90
11772;DHT22;12556;55.748;13.194;2022-09-03T05:13:29;13.00;99.90
11772;DHT22;12556;55.748;13.194;2022-09-03T05:15:59;13.10;99.90
11772;DHT22;12556;55.748;13.194;2022-09-03T05:18:26;13.20;99.90
11772;DHT22;12556;55.748;13.194;2022-09-03T05:20:57;13.20;99.90
11772;DHT22;12556;55.748;13.194;2022-09-03T05:23:27;13.30;99.90
11772;DHT22;12556;55.748;13.194;2022-09-03T05:25:55;13.30;99.90
11772;DHT22;12556;55.748;13.194;2022-09-03T05:28:23;13.40;99.90
11772;DHT22;12556;55.748;13.194;2022-09-03T05:30:58;13.50;99.90
11772;DHT22;12556;55.748;13.194;2022-09-03T05:33:25;13.60;99.90
11772;DHT22;12556;55.748;13.194;2022-09-03T05:35:52;13.60;99.90
11772;DHT22;12556;55.748;13.194;2022-09-03T05:38:19;13.70;99.90
11772;DHT22;12556;55.748;13.194;2022-09-03T05:40:47;13.70;99.90
11772;DHT22;12556;55.748;13.194;2022-09-03T05:43:14;13.80;99.90
11772;DHT22;12556;55.748;13.194;2022-09-03T05:45:42;13.90;99.90
11772;DHT22;12556;55.748;13.194;2022-09-03T05:48:09;14.10;99.90
11772;DHT22;12556;55.748;13.194;2022-09-03T05:50:36;14.20;99.90
11772;DHT22;12556;55.748;13.194;2022-09-03T05:53:03;14.30;99.90
11772;DHT22;12556;55.748;13.194;2022-09-03T05:55:30;14.40;99.90
11772;DHT22;12556;55.748;13.194;2022-09-03T05:57:58;14.60;99.90
11772;DHT22;12556;55.748;13.194;2022-09-03T06:00:25;14.70;99.90
11772;DHT22;12556;55.748;13.194;2022-09-03T06:02:53;14.70;99.90
11772;DHT22;12556;55.748;13.194;2022-09-03T06:05:20;14.90;99.90
11772;DHT22;12556;55.748;13.194;2022-09-03T06:07:46;15.00;99.90
11772;DHT22;12556;55.748;13.194;2022-09-03T06:10:14;15.10;99.90
11772;DHT22;12556;55.748;13.194;2022-09-03T06:12:42;15.20;99.90
11772;DHT22;12556;55.748;13.194;2022-09-03T06:15:15;15.30;99.90
11772;DHT22;12556;55.748;13.194;2022-09-03T06:17:42;15.30;99.90
11772;DHT22;12556;55.748;13.194;2022-09-03T06:20:09;15.40;99.90
11772;DHT22;12556;55.748;13.194;2022-09-03T06:22:36;15.40;99.90
11772;DHT22;12556;55.748;13.194;2022-09-03T06:25:04;15.50;99.90
11772;DHT22;12556;55.748;13.194;2022-09-03T06:27:32;15.60;99.90
11772;DHT22;12556;55.748;13.194;2022-09-03T06:29:59;15.70;99.90
11772;DHT22;12556;55.748;13.194;2022-09-03T06:32:27;15.90;99.90
11772;DHT22;12556;55.748;13.194;2022-09-03T06:34:54;16.00;99.90
11772;DHT22;12556;55.748;13.194;2022-09-03T06:37:21;16.10;99.90
11772;DHT22;12556;55.748;13.194;2022-09-03T06:39:48;16.30;99.90
11772;DHT22;12556;55.748;13.194;2022-09-03T06:42:16;16.40;99.90
11772;DHT22;12556;55.748;13.194;2022-09-03T06:44:43;16.60;99.90
11772;DHT22;12556;55.748;13.194;2022-09-03T06:47:10;16.60;99.90
11772;DHT22;12556;55.748;13.194;2022-09-03T06:49:39;16.80;99.90
11772;DHT22;12556;55.748;13.194;2022-09-03T06:52:06;16.80;99.90
11772;DHT22;12556;55.748;13.194;2022-09-03T06:54:33;16.90;99.90
11772;DHT22;12556;55.748;13.194;2022-09-03T06:56:59;16.90;99.90
11772;DHT22;12556;55.748;13.194;2022-09-03T06:59:26;17.00;99.90
11772;DHT22;12556;55.748;13.194;2022-09-03T07:01:53;17.10;99.90
11772;DHT22;12556;55.748;13.194;2022-09-03T07:04:20;17.20;99.90
11772;DHT22;12556;55.748;13.194;2022-09-03T07:06:50;17.40;99.90
11772;DHT22;12556;55.748;13.194;2022-09-03T07:09:17;17.50;99.90
11772;DHT22;12556;55.748;13.194;2022-09-03T07:11:44;17.60;99.90
11772;DHT22;12556;55.748;13.194;2022-09-03T07:14:15;17.70;99.90
11772;DHT22;12556;55.748;13.194;2022-09-03T07:16:42;17.70;99.90
11772;DHT22;12556;55.748;13.194;2022-09-03T07:19:11;17.80;99.90
11772;DHT22;12556;55.748;13.194;2022-09-03T07:21:39;17.80;99.90
11772;DHT22;12556;55.748;13.194;2022-09-03T07:24:08;17.80;99.90
11772;DHT22;12556;55.748;13.194;2022-09-03T07:26:38;17.80;99.90
11772;DHT22;12556;55.748;13.194;2022-09-03T07:29:06;18.00;99.90
11772;DHT22;12556;55.748;13.194;2022-09-03T07:31:34;18.10;99.90
11772;DHT22;12556;55.748;13.194;2022-09-03T07:34:04;18.10;99.90
11772;DHT22;12556;55.748;13.194;2022-09-03T07:36:37;18.10;99.90
11772;DHT22;12556;55.748;13.194;2022-09-03T07:39:05;18.10;99.90
11772;DHT22;12556;55.748;13.194;2022-09-03T07:41:33;18.10;99.90
11772;DHT22;12556;55.748;13.194;2022-09-03T07:44:01;18.20;99.90
11772;DHT22;12556;55.748;13.194;2022-09-03T07:46:31;18.30;99.90
11772;DHT22;12556;55.748;13.194;2022-09-03T07:48:59;18.40;99.90
11772;DHT22;12556;55.748;13.194;2022-09-03T07:51:28;18.40;99.90
11772;DHT22;12556;55.748;13.194;2022-09-03T07:53:58;18.50;99.90
11772;DHT22;12556;55.748;13.194;2022-09-03T07:56:25;18.50;99.90
11772;DHT22;12556;55.748;13.194;2022-09-03T07:58:57;18.50;99.90
11772;DHT22;12556;55.748;13.194;2022-09-03T08:01:25;18.50;99.90
11772;DHT22;12556;55.748;13.194;2022-09-03T08:03:53;18.50;99.90
11772;DHT22;12556;55.748;13.194;2022-09-03T08:06:24;18.50;99.90
11772;DHT22;12556;55.748;13.194;2022-09-03T08:08:54;18.60;99.90
11772;DHT22;12556;55.748;13.194;2022-09-03T08:11:24;18.70;99.90
11772;DHT22;12556;55.748;13.194;2022-09-03T08:13:54;18.70;99.90
11772;DHT22;12556;55.748;13.194;2022-09-03T08:16:23;18.80;99.90
11772;DHT22;12556;55.748;13.194;2022-09-03T08:18:50;19.00;99.90
11772;DHT22;12556;55.748;13.194;2022-09-03T08:21:18;19.10;99.80
11772;DHT22;12556;55.748;13.194;2022-09-03T08:23:46;19.30;99.50
11772;DHT22;12556;55.748;13.194;2022-09-03T08:26:14;19.60;98.90
11772;DHT22;12556;55.748;13.194;2022-09-03T08:28:42;19.80;98.40
11772;DHT22;12556;55.748;13.194;2022-09-03T08:31:10;19.90;98.00
11772;DHT22;12556;55.748;13.194;2022-09-03T08:33:40;20.00;97.80
11772;DHT22;12556;55.748;13.194;2022-09-03T08:36:09;20.10;97.80
11772;DHT22;12556;55.748;13.194;2022-09-03T08:38:37;20.20;97.50
11772;DHT22;12556;55.748;13.194;2022-09-03T08:41:11;20.20;97.10
11772;DHT22;12556;55.748;13.194;2022-09-03T08:44:08;20.30;97.10
11772;DHT22;12556;55.748;13.194;2022-09-03T08:46:43;20.30;97.30
11772;DHT22;12556;55.748;13.194;2022-09-03T08:49:19;20.30;97.20
11772;DHT22;12556;55.748;13.194;2022-09-03T08:51:48;20.50;97.30
11772;DHT22;12556;55.748;13.194;2022-09-03T08:54:17;20.70;96.90
11772;DHT22;12556;55.748;13.194;2022-09-03T08:56:45;20.80;96.80
11772;DHT22;12556;55.748;13.194;2022-09-03T08:59:12;20.80;96.50
11772;DHT22;12556;55.748;13.194;2022-09-03T09:01:46;20.90;96.40
11772;DHT22;12556;55.748;13.194;2022-09-03T09:04:28;21.10;96.60
11772;DHT22;12556;55.748;13.194;2022-09-03T09:07:04;21.20;96.10
11772;DHT22;12556;55.748;13.194;2022-09-03T09:09:37;21.30;96.40
11772;DHT22;12556;55.748;13.194;2022-09-03T09:12:19;21.40;95.70
11772;DHT22;12556;55.748;13.194;2022-09-03T09:15:02;21.40;95.70
11772;DHT22;12556;55.748;13.194;2022-09-03T09:17:42;21.50;95.60
11772;DHT22;12556;55.748;13.194;2022-09-03T09:20:20;21.40;95.30
11772;DHT22;12556;55.748;13.194;2022-09-03T09:22:51;21.50;95.20
11772;DHT22;12556;55.748;13.194;2022-09-03T09:25:22;21.60;95.10
11772;DHT22;12556;55.748;13.194;2022-09-03T09:27:53;21.40;95.00
11772;DHT22;12556;55.748;13.194;2022-09-03T09:30:22;21.70;94.90
11772;DHT22;12556;55.748;13.194;2022-09-03T09:32:49;21.70;94.50
11772;DHT22;12556;55.748;13.194;2022-09-03T09:35:18;21.60;94.50
11772;DHT22;12556;55.748;13.194;2022-09-03T09:37:50;21.60;94.30
11772;DHT22;12556;55.748;13.194;2022-09-03T09:40:26;21.50;94.00
11772;DHT22;12556;55.748;13.194;2022-09-03T09:43:06;21.60;93.70
11772;DHT22;12556;55.748;13.194;2022-09-03T09:45:35;21.60;93.30
11772;DHT22;12556;55.748;13.194;2022-09-03T09:48:10;21.70;93.30
11772;DHT22;12556;55.748;13.194;2022-09-03T09:50:40;21.70;93.00
11772;DHT22;12556;55.748;13.194;2022-09-03T09:53:09;21.70;92.90
11772;DHT22;12556;55.748;13.194;2022-09-03T09:55:51;21.60;92.80
11772;DHT22;12556;55.748;13.194;2022-09-03T09:58:20;21.70;92.60
11772;DHT22;12556;55.748;13.194;2022-09-03T10:01:02;21.60;92.20
11772;DHT22;12556;55.748;13.194;2022-09-03T10:03:40;21.60;92.00
11772;DHT22;12556;55.748;13.194;2022-09-03T10:06:15;21.60;92.00
11772;DHT22;12556;55.748;13.194;2022-09-03T10:09:07;21.60;91.90
11772;DHT22;12556;55.748;13.194;2022-09-03T10:11:36;21.50;91.90
11772;DHT22;12556;55.748;13.194;2022-09-03T10:14:11;21.50;92.00
11772;DHT22;12556;55.748;13.194;2022-09-03T10:16:41;21.50;92.00
11772;DHT22;12556;55.748;13.194;2022-09-03T10:19:16;21.50;92.20
11772;DHT22;12556;55.748;13.194;2022-09-03T10:21:50;21.60;92.40
11772;DHT22;12556;55.748;13.194;2022-09-03T10:24:31;21.50;92.60
11772;DHT22;12556;55.748;13.194;2022-09-03T10:27:05;21.40;92.60
11772;DHT22;12556;55.748;13.194;2022-09-03T10:29:34;21.10;92.70
11772;DHT22;12556;55.748;13.194;2022-09-03T10:32:18;20.90;92.80
11772;DHT22;12556;55.748;13.194;2022-09-03T10:34:56;20.80;93.00
11772;DHT22;12556;55.748;13.194;2022-09-03T10:37:33;20.60;93.30
11772;DHT22;12556;55.748;13.194;2022-09-03T10:40:18;20.50;93.70
11772;DHT22;12556;55.748;13.194;2022-09-03T10:42:59;20.70;94.10
11772;DHT22;12556;55.748;13.194;2022-09-03T10:45:36;20.90;93.90
11772;DHT22;12556;55.748;13.194;2022-09-03T10:48:23;21.00;93.70
11772;DHT22;12556;55.748;13.194;2022-09-03T10:50:55;21.10;93.80
11772;DHT22;12556;55.748;13.194;2022-09-03T10:53:38;21.10;93.80
11772;DHT22;12556;55.748;13.194;2022-09-03T10:56:17;21.20;93.60
11772;DHT22;12556;55.748;13.194;2022-09-03T10:58:58;21.10;93.60
11772;DHT22;12556;55.748;13.194;2022-09-03T11:01:34;21.00;93.50
11772;DHT22;12556;55.748;13.194;2022-09-03T11:04:24;21.00;93.40
11772;DHT22;12556;55.748;13.194;2022-09-03T11:06:58;21.00;93.40
11772;DHT22;12556;55.748;13.194;2022-09-03T11:09:32;21.00;93.40
11772;DHT22;12556;55.748;13.194;2022-09-03T11:12:05;20.90;93.40
11772;DHT22;12556;55.748;13.194;2022-09-03T11:14:37;21.00;93.50
11772;DHT22;12556;55.748;13.194;2022-09-03T11:17:10;21.00;93.20
11772;DHT22;12556;55.748;13.194;2022-09-03T11:19:44;21.00;93.30
11772;DHT22;12556;55.748;13.194;2022-09-03T11:22:14;20.90;93.20
11772;DHT22;12556;55.748;13.194;2022-09-03T11:24:45;20.90;93.10
11772;DHT22;12556;55.748;13.194;2022-09-03T11:27:23;20.90;92.90
11772;DHT22;12556;55.748;13.194;2022-09-03T11:29:56;21.00;92.80
11772;DHT22;12556;55.748;13.194;2022-09-03T11:32:38;21.00;92.70
11772;DHT22;12556;55.748;13.194;2022-09-03T11:35:13;21.00;92.50
11772;DHT22;12556;55.748;13.194;2022-09-03T11:37:47;21.00;92.70
11772;DHT22;12556;55.748;13.194;2022-09-03T11:40:17;21.00;92.80
11772;DHT22;12556;55.748;13.194;2022-09-03T11:42:46;20.90;93.00
11772;DHT22;12556;55.748;13.194;2022-09-03T11:45:21;20.90;93.00
11772;DHT22;12556;55.748;13.194;2022-09-03T11:47:49;20.90;92.90
11772;DHT22;12556;55.748;13.194;2022-09-03T11:50:21;21.00;92.80
11772;DHT22;12556;55.748;13.194;2022-09-03T11:52:49;21.10;92.60
11772;DHT22;12556;55.748;13.194;2022-09-03T11:55:30;21.10;92.70
11772;DHT22;12556;55.748;13.194;2022-09-03T11:58:09;21.00;92.70
11772;DHT22;12556;55.748;13.194;2022-09-03T12:00:37;21.00;92.90
11772;DHT22;12556;55.748;13.194;2022-09-03T12:03:04;21.00;93.00
11772;DHT22;12556;55.748;13.194;2022-09-03T12:05:39;21.00;92.70
11772;DHT22;12556;55.748;13.194;2022-09-03T12:08:18;21.00;92.40
11772;DHT22;12556;55.748;13.194;2022-09-03T12:10:56;21.00;92.50
11772;DHT22;12556;55.748;13.194;2022-09-03T12:13:40;20.90;92.70
11772;DHT22;12556;55.748;13.194;2022-09-03T12:16:35;20.90;93.00
11772;DHT22;12556;55.748;13.194;2022-09-03T12:19:08;20.70;93.10
11772;DHT22;12556;55.748;13.194;2022-09-03T12:21:37;20.60;93.40
11772;DHT22;12556;55.748;13.194;2022-09-03T12:24:04;20.60;93.60
11772;DHT22;12556;55.748;13.194;2022-09-03T12:26:40;20.50;93.70
11772;DHT22;12556;55.748;13.194;2022-09-03T12:29:19;20.60;93.60
11772;DHT22;12556;55.748;13.194;2022-09-03T12:31:48;20.50;93.60
11772;DHT22;12556;55.748;13.194;2022-09-03T12:34:17;20.50;93.60
11772;DHT22;12556;55.748;13.194;2022-09-03T12:36:46;20.50;93.50
11772;DHT22;12556;55.748;13.194;2022-09-03T12:39:14;20.50;93.40
11772;DHT22;12556;55.748;13.194;2022-09-03T12:41:54;20.60;93.20
11772;DHT22;12556;55.748;13.194;2022-09-03T12:44:24;20.50;93.00
11772;DHT22;12556;55.748;13.194;2022-09-03T12:47:00;20.50;93.00
11772;DHT22;12556;55.748;13.194;2022-09-03T12:49:31;20.50;92.60
11772;DHT22;12556;55.748;13.194;2022-09-03T12:52:02;20.50;92.70
11772;DHT22;12556;55.748;13.194;2022-09-03T12:54:31;20.50;92.50
11772;DHT22;12556;55.748;13.194;2022-09-03T12:57:01;20.50;92.50
11772;DHT22;12556;55.748;13.194;2022-09-03T12:59:32;20.50;92.50
11772;DHT22;12556;55.748;13.194;2022-09-03T13:02:03;20.50;92.70
11772;DHT22;12556;55.748;13.194;2022-09-03T13:04:33;20.60;92.70
11772;DHT22;12556;55.748;13.194;2022-09-03T13:07:04;20.60;92.60
11772;DHT22;12556;55.748;13.194;2022-09-03T13:09:34;20.70;92.60
11772;DHT22;12556;55.748;13.194;2022-09-03T13:12:04;20.80;92.70
11772;DHT22;12556;55.748;13.194;2022-09-03T13:14:41;21.10;92.60
11772;DHT22;12556;55.748;13.194;2022-09-03T13:17:18;21.50;92.80
11772;DHT22;12556;55.748;13.194;2022-09-03T13:19:58;21.80;93.00
11772;DHT22;12556;55.748;13.194;2022-09-03T13:22:34;21.90;93.20
11772;DHT22;12556;55.748;13.194;2022-09-03T13:25:15;22.20;93.20
11772;DHT22;12556;55.748;13.194;2022-09-03T13:28:01;22.10;93.40
11772;DHT22;12556;55.748;13.194;2022-09-03T13:30:33;21.80;93.30
11772;DHT22;12556;55.748;13.194;2022-09-03T13:33:06;21.50;93.70
11772;DHT22;12556;55.748;13.194;2022-09-03T13:35:38;21.40;94.20
11772;DHT22;12556;55.748;13.194;2022-09-03T13:38:16;21.10;94.50
11772;DHT22;12556;55.748;13.194;2022-09-03T13:40:48;21.00;94.70
11772;DHT22;12556;55.748;13.194;2022-09-03T13:43:27;20.90;95.00
11772;DHT22;12556;55.748;13.194;2022-09-03T13:45:58;20.80;95.00
11772;DHT22;12556;55.748;13.194;2022-09-03T13:48:29;20.50;95.10
11772;DHT22;12556;55.748;13.194;2022-09-03T13:51:21;20.30;95.50
11772;DHT22;12556;55.748;13.194;2022-09-03T13:53:58;20.00;95.90
11772;DHT22;12556;55.748;13.194;2022-09-03T13:56:35;19.70;96.10
11772;DHT22;12556;55.748;13.194;2022-09-03T13:59:14;19.50;96.40
11772;DHT22;12556;55.748;13.194;2022-09-03T14:01:59;19.20;96.70
11772;DHT22;12556;55.748;13.194;2022-09-03T14:04:32;19.00;97.00
11772;DHT22;12556;55.748;13.194;2022-09-03T14:07:08;18.90;97.30
11772;DHT22;12556;55.748;13.194;2022-09-03T14:09:41;18.90;97.30
11772;DHT22;12556;55.748;13.194;2022-09-03T14:12:17;18.90;97.20
11772;DHT22;12556;55.748;13.194;2022-09-03T14:14:52;18.80;97.20
11772;DHT22;12556;55.748;13.194;2022-09-03T14:17:30;18.80;96.80
11772;DHT22;12556;55.748;13.194;2022-09-03T14:20:03;18.70;96.20
11772;DHT22;12556;55.748;13.194;2022-09-03T14:22:43;18.60;95.90
11772;DHT22;12556;55.748;13.194;2022-09-03T14:25:14;18.70;95.50
11772;DHT22;12556;55.748;13.194;2022-09-03T14:27:42;18.70;95.40
11772;DHT22;12556;55.748;13.194;2022-09-03T14:30:23;18.70;95.30
11772;DHT22;12556;55.748;13.194;2022-09-03T14:32:58;18.70;95.30
11772;DHT22;12556;55.748;13.194;2022-09-03T14:35:49;18.80;95.40
11772;DHT22;12556;55.748;13.194;2022-09-03T14:38:50;18.80;95.30
11772;DHT22;12556;55.748;13.194;2022-09-03T14:41:43;19.00;95.10
11772;DHT22;12556;55.748;13.194;2022-09-03T14:44:46;19.10;95.00
11772;DHT22;12556;55.748;13.194;2022-09-03T14:47:29;19.20;94.80
11772;DHT22;12556;55.748;13.194;2022-09-03T14:50:19;19.30;94.40
11772;DHT22;12556;55.748;13.194;2022-09-03T14:53:06;19.40;94.10
11772;DHT22;12556;55.748;13.194;2022-09-03T14:55:48;19.60;94.00
11772;DHT22;12556;55.748;13.194;2022-09-03T14:58:23;19.70;93.60
11772;DHT22;12556;55.748;13.194;2022-09-03T15:00:57;19.70;93.40
11772;DHT22;12556;55.748;13.194;2022-09-03T15:06:45;19.80;92.80
11772;DHT22;12556;55.748;13.194;2022-09-03T15:09:26;19.90;92.70
11772;DHT22;12556;55.748;13.194;2022-09-03T15:11:56;19.90;92.60
11772;DHT22;12556;55.748;13.194;2022-09-03T15:14:27;19.90;92.30
11772;DHT22;12556;55.748;13.194;2022-09-03T15:17:00;19.90;92.10
11772;DHT22;12556;55.748;13.194;2022-09-03T15:19:48;19.90;91.80
11772;DHT22;12556;55.748;13.194;2022-09-03T15:22:30;19.90;91.80
11772;DHT22;12556;55.748;13.194;2022-09-03T15:25:06;19.80;91.70
11772;DHT22;12556;55.748;13.194;2022-09-03T15:27:44;19.80;91.70
11772;DHT22;12556;55.748;13.194;2022-09-03T15:30:15;19.90;91.80
11772;DHT22;12556;55.748;13.194;2022-09-03T15:33:09;20.00;91.80
11772;DHT22;12556;55.748;13.194;2022-09-03T15:35:54;20.00;91.70
11772;DHT22;12556;55.748;13.194;2022-09-03T15:38:33;20.10;91.90
11772;DHT22;12556;55.748;13.194;2022-09-03T15:41:06;20.10;91.80
11772;DHT22;12556;55.748;13.194;2022-09-03T15:43:37;20.10;91.80
11772;DHT22;12556;55.748;13.194;2022-09-03T15:46:09;20.10;91.90
11772;DHT22;12556;55.748;13.194;2022-09-03T15:48:46;20.00;92.20
11772;DHT22;12556;55.748;13.194;2022-09-03T15:51:21;19.90;92.30
11772;DHT22;12556;55.748;13.194;2022-09-03T15:53:54;19.80;92.50
11772;DHT22;12556;55.748;13.194;2022-09-03T15:56:27;19.60;92.70